Time;durP1;ratioP1;P1;durP2;ratioP2;P2;SDS_P1;SDS_P2;PMS_P1;PMS_P2;Temp;Humidity;BMP_temperature;BMP_pressure;BME280_temperature;BME280_humidity;BME280_pressure;Samples;Min_cycle;Max_cycle;Signal;HPM_P1;HPM_P2
2022/02/27 00:00:35;;;;;;;7.70;3.87;;;5.30;1.00;;;;;;5072649;28;20214;-75
2022/02/27 00:03:03;;;;;;;7.37;3.13;;;5.20;1.00;;;;;;5072524;28;20210;-78
2022/02/27 00:05:30;;;;;;;6.87;2.97;;;5.20;1.00;;;;;;5072819;28;20206;-78
2022/02/27 00:07:57;;;;;;;8.40;3.13;;;5.10;1.00;;;;;;5072595;28;20203;-78
2022/02/27 00:10:24;;;;;;;7.80;3.57;;;5.20;1.00;;;;;;5072980;28;20280;-76
2022/02/27 00:12:52;;;;;;;3.43;2.40;;;5.20;1.00;;;;;;5073323;28;20255;-77
2022/02/27 00:15:19;;;;;;;4.70;2.47;;;5.30;1.00;;;;;;5072717;28;20251;-77
2022/02/27 00:17:46;;;;;;;6.13;2.17;;;5.20;1.00;;;;;;5072697;28;20206;-76
2022/02/27 00:20:14;;;;;;;4.37;2.50;;;5.20;1.00;;;;;;5072059;28;20210;-75
2022/02/27 00:22:41;;;;;;;5.07;1.93;;;5.10;1.00;;;;;;5072749;28;20212;-78
2022/02/27 00:25:10;;;;;;;6.27;2.07;;;5.20;1.00;;;;;;5072327;28;20203;-78
2022/02/27 00:27:38;;;;;;;6.33;2.37;;;5.10;1.00;;;;;;5072565;28;20635;-78
2022/02/27 00:30:07;;;;;;;3.77;1.97;;;5.10;1.00;;;;;;5071861;28;20226;-77
2022/02/27 00:32:34;;;;;;;8.33;3.73;;;5.00;1.00;;;;;;5072079;28;20272;-77
2022/02/27 00:35:01;;;;;;;6.90;3.43;;;5.00;1.00;;;;;;5072050;28;20621;-78
2022/02/27 00:37:29;;;;;;;10.83;4.07;;;5.00;1.00;;;;;;5072256;28;20731;-78
2022/02/27 00:39:56;;;;;;;5.43;2.70;;;4.90;1.00;;;;;;5071920;28;20547;-78
2022/02/27 00:42:23;;;;;;;8.33;2.90;;;4.80;1.00;;;;;;5072070;28;20626;-78
2022/02/27 00:44:50;;;;;;;8.10;3.33;;;4.90;1.00;;;;;;5072380;28;20206;-79
2022/02/27 00:47:17;;;;;;;4.27;2.73;;;4.80;1.00;;;;;;5072535;28;20206;-77
2022/02/27 00:49:44;;;;;;;6.03;2.77;;;4.90;1.00;;;;;;5072214;28;20202;-77
2022/02/27 00:52:11;;;;;;;11.27;4.17;;;4.80;1.00;;;;;;5071772;28;20237;-78
2022/02/27 00:54:40;;;;;;;6.87;3.10;;;4.70;1.00;;;;;;5072056;28;20234;-78
2022/02/27 00:57:07;;;;;;;6.93;3.40;;;4.60;1.00;;;;;;5071131;28;20744;-78
2022/02/27 00:59:34;;;;;;;8.90;3.40;;;4.40;1.00;;;;;;5071738;28;20618;-78
2022/02/27 01:02:01;;;;;;;4.93;3.10;;;4.40;1.00;;;;;;5070473;28;20274;-78
2022/02/27 01:04:28;;;;;;;5.60;2.97;;;4.30;1.00;;;;;;5071872;28;20214;-79
2022/02/27 01:06:55;;;;;;;7.47;3.50;;;4.30;1.00;;;;;;5071459;28;20210;-79
2022/02/27 01:09:22;;;;;;;4.77;2.77;;;4.40;1.00;;;;;;5071785;28;20260;-70
2022/02/27 01:11:50;;;;;;;7.07;2.80;;;4.40;1.00;;;;;;5071555;28;20638;-79
2022/02/27 01:14:17;;;;;;;3.90;3.03;;;4.30;1.00;;;;;;5071965;28;20205;-78
2022/02/27 01:16:44;;;;;;;6.57;3.43;;;4.30;1.00;;;;;;5071703;28;20210;-78
2022/02/27 01:19:11;;;;;;;8.47;3.57;;;4.40;1.00;;;;;;5071231;28;20256;-78
2022/02/27 01:21:38;;;;;;;6.37;2.97;;;4.40;1.00;;;;;;5071464;28;20198;-78
2022/02/27 01:24:06;;;;;;;7.23;2.83;;;4.30;1.00;;;;;;5071076;28;20256;-77
2022/02/27 01:26:34;;;;;;;6.07;2.33;;;4.20;1.00;;;;;;5071081;28;20202;-78
2022/02/27 01:29:03;;;;;;;5.20;3.33;;;4.20;1.00;;;;;;5071129;28;20202;-78
2022/02/27 01:31:30;;;;;;;5.23;3.43;;;4.30;1.00;;;;;;5071167;28;20229;-78
2022/02/27 01:33:57;;;;;;;5.90;3.37;;;4.30;1.00;;;;;;5070885;28;20335;-78
2022/02/27 01:36:24;;;;;;;6.43;3.33;;;4.10;1.00;;;;;;5071213;28;20203;-78
2022/02/27 01:38:50;;;;;;;7.33;2.90;;;4.20;1.00;;;;;;5071448;28;20202;-76
2022/02/27 01:41:17;;;;;;;10.17;4.13;;;4.30;1.00;;;;;;5071768;28;20198;-78
2022/02/27 01:43:44;;;;;;;4.70;3.10;;;4.30;1.00;;;;;;5071218;28;20205;-75
2022/02/27 01:46:15;;;;;;;8.70;3.03;;;4.30;1.00;;;;;;5070845;28;20202;-78
2022/02/27 01:48:42;;;;;;;10.67;4.47;;;4.30;1.00;;;;;;5070949;28;20727;-78
2022/02/27 01:51:09;;;;;;;9.77;3.53;;;4.20;1.00;;;;;;5070521;28;20229;-77
2022/02/27 01:53:36;;;;;;;11.33;3.70;;;4.20;1.00;;;;;;5070977;28;20206;-78
2022/02/27 01:56:04;;;;;;;4.83;3.13;;;4.30;1.00;;;;;;5070243;28;20263;-78
2022/02/27 01:58:31;;;;;;;6.60;3.00;;;4.10;1.00;;;;;;5071455;28;20206;-79
2022/02/27 02:01:00;;;;;;;10.40;3.97;;;4.10;1.00;;;;;;5070590;28;20210;-77
2022/02/27 02:03:29;;;;;;;6.83;3.27;;;4.10;1.00;;;;;;5070862;28;20267;-78
2022/02/27 02:05:56;;;;;;;6.03;3.47;;;4.00;1.00;;;;;;5070602;28;20260;-74
2022/02/27 02:08:23;;;;;;;4.87;2.90;;;3.90;1.00;;;;;;5070625;28;20585;-78
2022/02/27 02:10:50;;;;;;;7.77;3.30;;;3.80;1.00;;;;;;5070761;28;20234;-78
2022/02/27 02:13:17;;;;;;;8.73;3.40;;;4.00;1.00;;;;;;5070825;28;20229;-77
2022/02/27 02:15:44;;;;;;;7.90;4.20;;;4.10;1.00;;;;;;5070880;28;20260;-76
2022/02/27 02:18:11;;;;;;;8.33;3.13;;;4.20;1.00;;;;;;5070536;28;20202;-77
2022/02/27 02:20:39;;;;;;;3.97;2.87;;;4.20;1.00;;;;;;5070332;28;20256;-78
2022/02/27 02:23:06;;;;;;;3.03;2.73;;;4.20;1.00;;;;;;5070476;28;20210;-76
2022/02/27 02:25:33;;;;;;;9.10;3.53;;;4.10;1.00;;;;;;5070595;28;20206;-79
2022/02/27 02:28:00;;;;;;;7.40;2.73;;;4.10;1.00;;;;;;5070310;28;20267;-79
2022/02/27 02:30:27;;;;;;;8.67;3.60;;;4.10;1.00;;;;;;5070477;28;20206;-78
2022/02/27 02:32:57;;;;;;;3.83;2.57;;;4.10;1.00;;;;;;5070189;28;20202;-76
2022/02/27 02:35:25;;;;;;;6.17;2.47;;;4.00;1.00;;;;;;5070545;28;20198;-77
2022/02/27 02:37:54;;;;;;;6.73;3.00;;;4.00;1.00;;;;;;5070143;28;20206;-71
2022/02/27 02:40:23;;;;;;;8.27;2.97;;;4.00;1.00;;;;;;5070949;28;20279;-78
2022/02/27 02:42:50;;;;;;;7.90;4.03;;;4.10;1.00;;;;;;5070885;28;20232;-77
2022/02/27 02:45:17;;;;;;;11.87;4.53;;;4.10;1.00;;;;;;5070728;28;20678;-76
2022/02/27 02:47:46;;;;;;;11.10;3.93;;;4.10;1.00;;;;;;5070399;28;20206;-78
2022/02/27 02:50:15;;;;;;;5.83;2.20;;;4.10;1.00;;;;;;5070067;28;20263;-79
2022/02/27 02:52:42;;;;;;;7.30;3.23;;;4.10;1.00;;;;;;5070549;28;20237;-78
2022/02/27 02:55:13;;;;;;;6.57;3.57;;;4.00;1.00;;;;;;5069639;28;20198;-79
2022/02/27 02:57:40;;;;;;;4.77;2.80;;;4.00;1.00;;;;;;5070274;28;20662;-78
2022/02/27 03:00:10;;;;;;;5.17;3.07;;;4.00;1.00;;;;;;5070018;28;20625;-78
2022/02/27 03:02:38;;;;;;;6.67;3.47;;;3.80;1.00;;;;;;5070287;28;20209;-78
2022/02/27 03:05:07;;;;;;;5.63;2.50;;;3.70;1.00;;;;;;5069910;28;20539;-78
2022/02/27 03:07:35;;;;;;;7.87;4.47;;;3.80;1.00;;;;;;5069899;28;20335;-78
2022/02/27 03:10:02;;;;;;;9.20;3.57;;;3.80;1.00;;;;;;5069996;28;20202;-78
2022/02/27 03:12:31;;;;;;;6.87;3.67;;;3.60;1.00;;;;;;5070646;28;20233;-78
2022/02/27 03:14:58;;;;;;;9.27;4.03;;;3.80;1.00;;;;;;5069748;28;20259;-76
2022/02/27 03:17:25;;;;;;;23.73;4.70;;;3.90;1.00;;;;;;5070322;28;20252;-78
2022/02/27 03:19:52;;;;;;;8.00;3.87;;;3.90;1.00;;;;;;5070097;28;20202;-71
2022/02/27 03:22:19;;;;;;;11.43;4.80;;;3.90;1.00;;;;;;5070336;28;20210;-76
2022/02/27 03:24:46;;;;;;;9.20;4.13;;;3.90;1.00;;;;;;5070246;28;20199;-74
2022/02/27 03:27:13;;;;;;;6.80;3.53;;;3.90;1.00;;;;;;5072797;28;20207;-76
2022/02/27 03:29:41;;;;;;;10.17;5.23;;;3.80;1.00;;;;;;5073629;28;20206;-77
2022/02/27 03:32:08;;;;;;;9.33;4.90;;;3.90;1.00;;;;;;5073222;28;20233;-77
2022/02/27 03:34:35;;;;;;;9.57;3.07;;;3.90;1.00;;;;;;5073492;28;20673;-77
2022/02/27 03:37:03;;;;;;;8.30;3.70;;;3.80;1.00;;;;;;5073032;28;20247;-76
2022/02/27 03:39:30;;;;;;;8.23;4.10;;;3.90;1.00;;;;;;5073521;28;20237;-76
2022/02/27 03:41:57;;;;;;;7.03;4.00;;;3.80;1.00;;;;;;5072981;28;20199;-76
2022/02/27 03:44:24;;;;;;;7.83;5.17;;;3.80;1.00;;;;;;5073457;28;20202;-74
2022/02/27 03:46:52;;;;;;;5.77;3.20;;;3.80;1.00;;;;;;5073784;28;20202;-77
2022/02/27 03:49:19;;;;;;;4.63;3.30;;;3.80;1.00;;;;;;5073619;28;20569;-75
2022/02/27 03:51:46;;;;;;;7.30;3.97;;;3.80;1.00;;;;;;5072869;28;20797;-77
2022/02/27 03:54:13;;;;;;;9.23;3.43;;;3.70;1.00;;;;;;5072886;28;20206;-76
2022/02/27 03:56:40;;;;;;;12.90;5.00;;;3.70;1.00;;;;;;5072885;28;20563;-74
2022/02/27 03:59:07;;;;;;;6.33;3.30;;;3.70;1.00;;;;;;5072642;28;20202;-78
2022/02/27 04:01:34;;;;;;;7.87;4.47;;;3.70;1.00;;;;;;5072947;28;20260;-78
2022/02/27 04:04:02;;;;;;;5.73;2.80;;;3.70;1.00;;;;;;5072724;28;20248;-77
2022/02/27 04:06:29;;;;;;;10.43;3.70;;;3.70;1.00;;;;;;5072768;28;20202;-78
2022/02/27 04:08:56;;;;;;;8.63;2.83;;;3.70;1.00;;;;;;5072641;28;20206;-75
2022/02/27 04:11:23;;;;;;;9.37;4.20;;;3.70;1.00;;;;;;5072971;28;20284;-72
2022/02/27 04:13:50;;;;;;;10.00;3.17;;;3.70;1.00;;;;;;5072882;28;20202;-79
2022/02/27 04:16:17;;;;;;;6.90;3.00;;;3.70;1.00;;;;;;5073142;28;20258;-76
2022/02/27 04:18:44;;;;;;;3.17;2.87;;;3.70;1.00;;;;;;5072696;28;20248;-77
2022/02/27 04:21:12;;;;;;;7.40;2.60;;;3.70;1.00;;;;;;5071999;28;20248;-75
2022/02/27 04:23:39;;;;;;;5.97;3.10;;;3.70;1.00;;;;;;5072567;28;20658;-75
2022/02/27 04:26:06;;;;;;;9.03;3.20;;;3.60;1.00;;;;;;5072413;28;20285;-74
2022/02/27 04:28:33;;;;;;;5.57;2.60;;;3.70;1.00;;;;;;5072687;28;20247;-77
2022/02/27 04:31:00;;;;;;;9.90;4.13;;;3.60;1.00;;;;;;5071867;28;20731;-76
2022/02/27 04:33:27;;;;;;;7.43;2.73;;;3.60;1.00;;;;;;5072434;28;20285;-75
2022/02/27 04:35:54;;;;;;;7.43;2.80;;;3.60;1.00;;;;;;5071801;28;20198;-74
2022/02/27 04:38:23;;;;;;;5.40;2.77;;;3.50;1.00;;;;;;5072418;28;20271;-77
2022/02/27 04:40:49;;;;;;;7.97;3.40;;;3.60;1.00;;;;;;5072468;28;20202;-75
2022/02/27 04:43:16;;;;;;;6.50;3.43;;;3.60;1.00;;;;;;5071681;28;20681;-78
2022/02/27 04:45:43;;;;;;;6.57;2.90;;;3.50;1.00;;;;;;5072155;28;20727;-76
2022/02/27 04:48:10;;;;;;;6.67;2.43;;;3.40;1.00;;;;;;5071859;28;20202;-76
2022/02/27 04:50:37;;;;;;;3.40;3.10;;;3.50;1.00;;;;;;5071814;28;20198;-75
2022/02/27 04:53:04;;;;;;;6.97;3.10;;;3.50;1.00;;;;;;5071520;28;20234;-77
2022/02/27 04:55:33;;;;;;;4.93;2.53;;;3.60;1.00;;;;;;5072017;28;20271;-76
2022/02/27 04:58:00;;;;;;;9.70;3.40;;;3.50;1.00;;;;;;5071676;28;20203;-75
2022/02/27 05:00:27;;;;;;;7.70;2.70;;;3.50;1.00;;;;;;5071722;28;20248;-78
2022/02/27 05:02:54;;;;;;;4.83;3.40;;;3.50;1.00;;;;;;5071334;28;20202;-75
2022/02/27 05:05:21;;;;;;;7.20;2.30;;;3.50;1.00;;;;;;5071761;28;20206;-75
2022/02/27 05:07:47;;;;;;;5.87;3.97;;;3.60;1.00;;;;;;5072165;28;20206;-77
2022/02/27 05:10:15;;;;;;;7.00;3.13;;;3.60;1.00;;;;;;5071273;28;20731;-69
2022/02/27 05:12:43;;;;;;;5.17;3.23;;;3.60;1.00;;;;;;5071698;28;20237;-77
2022/02/27 05:15:12;;;;;;;6.70;3.80;;;3.50;1.00;;;;;;5071277;28;20251;-76
2022/02/27 05:17:39;;;;;;;5.73;4.33;;;3.40;1.00;;;;;;5071554;28;20206;-76
2022/02/27 05:20:08;;;;;;;6.93;4.37;;;3.50;1.00;;;;;;5070602;28;20206;-72
2022/02/27 05:22:35;;;;;;;8.47;4.80;;;3.30;1.00;;;;;;5071356;28;20554;-77
2022/02/27 05:25:02;;;;;;;11.50;5.63;;;3.30;1.00;;;;;;5070994;28;20202;-76
2022/02/27 05:27:29;;;;;;;10.43;5.20;;;3.30;1.00;;;;;;5071604;28;20220;-73
2022/02/27 05:29:57;;;;;;;16.70;5.37;;;3.40;1.00;;;;;;5070851;28;20616;-75
2022/02/27 05:32:24;;;;;;;9.37;5.73;;;3.40;1.00;;;;;;5070733;28;20288;-76
2022/02/27 05:34:52;;;;;;;9.07;4.63;;;3.40;1.00;;;;;;5071741;28;20255;-73
2022/02/27 05:37:18;;;;;;;6.00;4.20;;;3.40;1.00;;;;;;5071713;28;20202;-75
2022/02/27 05:39:45;;;;;;;8.80;5.43;;;3.40;1.00;;;;;;5071290;28;20210;-75
2022/02/27 05:42:12;;;;;;;9.57;6.27;;;3.40;1.00;;;;;;5070811;28;20327;-76
2022/02/27 05:44:40;;;;;;;8.13;4.77;;;3.30;1.00;;;;;;5070873;28;20290;-77
2022/02/27 05:47:08;;;;;;;9.33;4.70;;;3.30;1.00;;;;;;5070482;28;20238;-71
2022/02/27 05:49:35;;;;;;;8.60;4.80;;;3.30;1.00;;;;;;5070887;28;20210;-77
2022/02/27 05:52:03;;;;;;;9.17;4.93;;;3.30;1.00;;;;;;5070729;28;20276;-76
2022/02/27 05:54:30;;;;;;;8.67;4.53;;;3.20;1.00;;;;;;5070788;28;20206;-76
2022/02/27 05:56:57;;;;;;;11.10;4.97;;;3.20;1.00;;;;;;5070706;28;20248;-73
2022/02/27 05:59:25;;;;;;;9.27;4.73;;;3.20;1.00;;;;;;5070627;28;20202;-76
2022/02/27 06:01:52;;;;;;;11.07;5.03;;;3.10;1.00;;;;;;5070092;28;20218;-69
2022/02/27 06:04:21;;;;;;;12.23;4.80;;;3.10;1.00;;;;;;5071151;28;20248;-77
2022/02/27 06:06:48;;;;;;;8.40;5.10;;;3.10;1.00;;;;;;5071300;28;20202;-75
2022/02/27 06:09:15;;;;;;;8.30;4.83;;;2.90;1.00;;;;;;5070552;28;20252;-76
2022/02/27 06:11:42;;;;;;;7.40;4.43;;;2.90;1.00;;;;;;5070777;28;20289;-75
2022/02/27 06:14:09;;;;;;;9.03;5.73;;;2.90;1.00;;;;;;5070331;28;20249;-74
2022/02/27 06:16:36;;;;;;;7.57;5.20;;;2.90;1.00;;;;;;5070422;28;20213;-75
2022/02/27 06:19:03;;;;;;;9.13;5.30;;;2.90;1.00;;;;;;5070357;28;20247;-77
2022/02/27 06:21:32;;;;;;;7.43;6.17;;;2.90;1.00;;;;;;5070669;28;20256;-74
2022/02/27 06:23:58;;;;;;;10.07;4.80;;;2.90;1.00;;;;;;5070421;28;20213;-78
2022/02/27 06:26:26;;;;;;;10.73;4.13;;;2.90;1.00;;;;;;5070601;28;20338;-77
2022/02/27 06:28:53;;;;;;;8.37;4.60;;;2.90;1.00;;;;;;5070577;28;20275;-73
2022/02/27 06:31:20;;;;;;;11.37;6.30;;;2.80;1.00;;;;;;5070820;28;20259;-76
2022/02/27 06:33:47;;;;;;;10.43;6.23;;;2.80;1.00;;;;;;5070930;28;20234;-77
2022/02/27 06:36:14;;;;;;;7.33;5.43;;;2.80;1.00;;;;;;5070283;28;20256;-76
2022/02/27 06:38:42;;;;;;;8.20;4.93;;;2.80;1.00;;;;;;5070574;28;20555;-75
2022/02/27 06:41:12;;;;;;;8.63;5.43;;;2.70;1.00;;;;;;5069881;28;20206;-78
2022/02/27 06:43:39;;;;;;;9.27;5.70;;;2.80;1.00;;;;;;5070570;28;20212;-77
2022/02/27 06:46:06;;;;;;;7.87;4.57;;;2.80;1.00;;;;;;5069834;28;20244;-76
2022/02/27 06:48:33;;;;;;;9.33;4.73;;;2.90;1.00;;;;;;5070449;28;20293;-73
2022/02/27 06:51:00;;;;;;;9.53;5.37;;;3.00;1.00;;;;;;5070190;28;20203;-75
2022/02/27 06:53:27;;;;;;;15.00;7.17;;;3.00;1.00;;;;;;5070328;28;20283;-77
2022/02/27 06:55:56;;;;;;;19.30;8.50;;;3.00;1.00;;;;;;5070007;28;20621;-74
2022/02/27 06:58:23;;;;;;;14.23;6.53;;;3.00;1.00;;;;;;5070599;28;20202;-72
2022/02/27 07:00:49;;;;;;;11.03;4.97;;;3.10;1.00;;;;;;5071500;28;20214;-74
2022/02/27 07:03:16;;;;;;;8.83;6.50;;;3.20;1.00;;;;;;5074273;28;20297;-74
2022/02/27 07:05:43;;;;;;;10.97;6.07;;;3.20;1.00;;;;;;5074105;28;20264;-72
2022/02/27 07:08:10;;;;;;;7.27;5.63;;;3.30;1.00;;;;;;5073613;28;20202;-71
2022/02/27 07:10:37;;;;;;;18.57;6.50;;;3.30;1.00;;;;;;5074156;28;20202;-70
2022/02/27 07:13:06;;;;;;;11.67;5.20;;;3.40;1.00;;;;;;5073593;28;20234;-71
2022/02/27 07:15:33;;;;;;;12.83;6.70;;;3.40;1.00;;;;;;5073706;28;20247;-71
2022/02/27 07:18:01;;;;;;;9.20;6.17;;;3.40;1.00;;;;;;5073565;28;20272;-72
2022/02/27 07:20:28;;;;;;;10.60;7.37;;;3.40;1.00;;;;;;5073877;28;20201;-76
2022/02/27 07:22:55;;;;;;;15.17;7.33;;;3.50;1.00;;;;;;5073363;28;20712;-70
2022/02/27 07:25:22;;;;;;;9.97;7.27;;;3.60;1.00;;;;;;5073899;28;20256;-69
2022/02/27 07:27:49;;;;;;;9.53;6.23;;;3.80;1.00;;;;;;5073992;28;20206;-74
2022/02/27 07:30:17;;;;;;;8.03;6.37;;;3.80;1.00;;;;;;5073210;28;20214;-69
2022/02/27 07:32:44;;;;;;;8.60;5.40;;;3.90;1.00;;;;;;5073505;28;20222;-70
2022/02/27 07:35:11;;;;;;;8.73;5.73;;;4.00;1.00;;;;;;5073235;28;20259;-70
2022/02/27 07:37:38;;;;;;;11.53;6.00;;;4.20;1.00;;;;;;5073414;28;20202;-76
2022/02/27 07:40:06;;;;;;;9.07;5.13;;;4.30;1.00;;;;;;5073270;28;20198;-71
2022/02/27 07:42:33;;;;;;;6.10;5.23;;;4.60;1.00;;;;;;5073640;28;20626;-73
2022/02/27 07:45:03;;;;;;;10.37;5.60;;;5.40;1.00;;;;;;5072793;28;20199;-71
2022/02/27 07:47:32;;;;;;;7.60;5.00;;;5.40;1.00;;;;;;5073278;28;20719;-75
2022/02/27 07:49:59;;;;;;;11.40;6.17;;;6.10;1.00;;;;;;5072710;28;20257;-74
2022/02/27 07:52:26;;;;;;;7.60;5.20;;;6.60;1.00;;;;;;5073367;28;20225;-75
2022/02/27 07:54:54;;;;;;;9.00;5.27;;;7.30;1.00;;;;;;5072824;28;20658;-74
2022/02/27 07:57:21;;;;;;;8.07;5.40;;;7.80;1.00;;;;;;5073326;28;20245;-75
2022/02/27 07:59:48;;;;;;;10.10;6.17;;;7.00;1.00;;;;;;5073473;28;20252;-72
2022/02/27 08:02:15;;;;;;;15.27;7.13;;;6.60;1.00;;;;;;5072301;28;20640;-70
2022/02/27 08:04:43;;;;;;;10.17;5.47;;;7.30;1.00;;;;;;5073402;28;20214;-73
2022/02/27 08:07:10;;;;;;;4.50;3.93;;;7.60;1.00;;;;;;5072747;28;20202;-69
2022/02/27 08:09:37;;;;;;;11.33;5.40;;;7.40;1.00;;;;;;5073058;28;20351;-72
2022/02/27 08:12:04;;;;;;;8.50;5.47;;;6.80;1.00;;;;;;5071855;28;20205;-71
2022/02/27 08:14:31;;;;;;;9.90;4.70;;;6.30;1.00;;;;;;5072617;28;20233;-68
2022/02/27 08:16:58;;;;;;;7.80;4.73;;;6.20;1.00;;;;;;5072274;28;20203;-77
2022/02/27 08:19:25;;;;;;;8.83;4.07;;;6.50;1.00;;;;;;5072916;28;20255;-75
2022/02/27 08:21:54;;;;;;;10.50;4.37;;;6.00;1.00;;;;;;5072313;28;20232;-70
2022/02/27 08:24:21;;;;;;;10.43;5.33;;;5.90;1.00;;;;;;5072972;28;20199;-73
2022/02/27 08:26:47;;;;;;;13.13;4.83;;;6.30;1.00;;;;;;5072699;28;20251;-72
2022/02/27 08:29:14;;;;;;;8.50;4.17;;;6.60;1.00;;;;;;5072209;28;20202;-72
2022/02/27 08:31:44;;;;;;;6.63;4.60;;;6.50;1.00;;;;;;5072424;28;20539;-74
2022/02/27 08:34:12;;;;;;;6.27;4.13;;;6.30;1.00;;;;;;5071798;28;21097;-69
2022/02/27 08:36:39;;;;;;;8.07;4.40;;;6.30;1.00;;;;;;5072301;28;20735;-73
2022/02/27 08:39:09;;;;;;;7.77;4.63;;;6.20;1.00;;;;;;5071861;28;20772;-75
2022/02/27 08:41:37;;;;;;;8.87;5.30;;;6.80;1.00;;;;;;5071922;28;20209;-78
2022/02/27 08:44:04;;;;;;;10.27;3.67;;;7.10;1.00;;;;;;5071719;28;20748;-72
2022/02/27 08:46:31;;;;;;;5.97;4.40;;;7.30;1.00;;;;;;5072297;28;20206;-75
2022/02/27 08:48:58;;;;;;;9.03;4.47;;;7.60;1.00;;;;;;5071759;28;20259;-75
2022/02/27 08:51:26;;;;;;;10.40;4.30;;;7.60;1.00;;;;;;5072104;28;20202;-74
2022/02/27 08:53:53;;;;;;;7.10;4.30;;;7.60;1.00;;;;;;5071637;28;20755;-77
2022/02/27 08:56:21;;;;;;;8.07;4.70;;;7.60;1.00;;;;;;5071995;28;20737;-75
2022/02/27 08:58:48;;;;;;;11.53;4.93;;;7.80;1.00;;;;;;5072241;28;20259;-75
2022/02/27 09:01:15;;;;;;;11.57;6.83;;;7.70;1.00;;;;;;5071509;28;20210;-76
2022/02/27 09:03:42;;;;;;;4.90;4.13;;;7.70;1.00;;;;;;5071954;28;20210;-79
2022/02/27 09:06:09;;;;;;;5.23;3.33;;;7.60;1.00;;;;;;5071415;28;20199;-70
2022/02/27 09:08:37;;;;;;;7.17;3.37;;;7.60;1.00;;;;;;5071603;28;20206;-71
2022/02/27 09:11:04;;;;;;;4.83;2.90;;;7.60;1.00;;;;;;5071002;28;20268;-73
2022/02/27 09:13:33;;;;;;;8.70;3.50;;;7.90;1.00;;;;;;5071643;28;20299;-70
2022/02/27 09:16:00;;;;;;;7.83;2.50;;;8.10;1.00;;;;;;5071390;28;20198;-71
2022/02/27 09:18:27;;;;;;;9.03;3.37;;;7.80;1.00;;;;;;5071662;28;20210;-76
2022/02/27 09:20:54;;;;;;;7.70;2.73;;;8.40;1.00;;;;;;5071263;28;20203;-76
2022/02/27 09:23:21;;;;;;;11.27;2.93;;;8.20;1.00;;;;;;5070968;28;20213;-73
2022/02/27 09:25:48;;;;;;;5.40;2.07;;;8.10;1.00;;;;;;5071261;28;20264;-71
2022/02/27 09:28:16;;;;;;;6.20;3.07;;;7.90;1.00;;;;;;5071219;28;20259;-76
2022/02/27 09:30:45;;;;;;;15.33;8.77;;;8.20;1.00;;;;;;5071547;28;20206;-74
2022/02/27 09:33:12;;;;;;;20.80;10.30;;;8.00;1.00;;;;;;5070964;28;20608;-75
2022/02/27 09:35:39;;;;;;;12.13;5.93;;;8.40;1.00;;;;;;5071339;28;20202;-73
2022/02/27 09:38:06;;;;;;;9.33;3.27;;;8.90;1.00;;;;;;5070503;28;20260;-77
2022/02/27 09:40:33;;;;;;;6.67;4.00;;;9.30;1.00;;;;;;5071235;28;20254;-78
2022/02/27 09:43:00;;;;;;;7.93;4.23;;;9.30;1.00;;;;;;5070691;28;20331;-79
2022/02/27 09:45:27;;;;;;;8.00;2.77;;;9.30;1.00;;;;;;5071247;28;20251;-80
2022/02/27 09:47:57;;;;;;;12.90;5.67;;;9.20;1.00;;;;;;5070847;28;20202;-80
2022/02/27 09:50:26;;;;;;;7.17;3.10;;;8.80;1.00;;;;;;5070979;28;20735;-78
2022/02/27 09:52:53;;;;;;;11.63;3.50;;;8.80;1.00;;;;;;5070489;28;20273;-77
2022/02/27 09:55:20;;;;;;;9.10;4.13;;;8.60;1.00;;;;;;5071217;28;20259;-78
2022/02/27 09:57:49;;;;;;;8.73;4.10;;;8.60;1.00;;;;;;5071452;28;20255;-80
2022/02/27 10:00:18;;;;;;;7.43;3.00;;;8.60;1.00;;;;;;5070441;28;20664;-73
2022/02/27 10:03:07;;;;;;;5.20;3.67;;;8.80;1.00;;;;;;5071016;28;20256;-78
2022/02/27 10:05:35;;;;;;;5.43;2.90;;;9.00;1.00;;;;;;5070895;28;20210;-80
2022/02/27 10:08:05;;;;;;;4.43;2.50;;;9.10;1.00;;;;;;5070403;28;20269;-78
2022/02/27 10:10:32;;;;;;;9.63;3.20;;;9.20;1.00;;;;;;5070893;28;20202;-70
2022/02/27 10:12:59;;;;;;;5.03;2.70;;;8.90;1.00;;;;;;5070314;28;20623;-77
2022/02/27 10:15:27;;;;;;;6.83;3.37;;;9.00;1.00;;;;;;5070848;28;20198;-75
2022/02/27 10:17:54;;;;;;;9.13;2.90;;;9.20;1.00;;;;;;5070336;28;20201;-75
2022/02/27 10:20:25;;;;;;;5.90;2.53;;;9.30;1.00;;;;;;5071201;28;20289;-73
2022/02/27 10:22:53;;;;;;;12.30;3.03;;;9.30;1.00;;;;;;5070294;28;20272;-72
2022/02/27 10:25:23;;;;;;;3.97;3.10;;;9.40;1.00;;;;;;5070841;28;20259;-76
2022/02/27 10:27:52;;;;;;;7.20;3.43;;;9.40;1.00;;;;;;5071012;28;20201;-76
2022/02/27 10:30:22;;;;;;;7.20;2.77;;;9.40;1.00;;;;;;5070904;28;20198;-76
2022/02/27 10:32:52;;;;;;;10.20;3.53;;;9.60;1.00;;;;;;5071285;28;20255;-74
2022/02/27 10:35:51;;;;;;;7.07;3.50;;;9.90;1.00;;;;;;5072962;28;20700;-75
2022/02/27 10:38:30;;;;;;;7.47;2.80;;;9.70;1.00;;;;;;5052565;28;20779;-71
2022/02/27 10:40:57;;;;;;;9.23;2.50;;;9.90;1.00;;;;;;5070908;28;20555;-76
2022/02/27 10:43:23;;;;;;;9.20;4.67;;;9.90;1.00;;;;;;5074846;28;20283;-73
2022/02/27 10:46:02;;;;;;;5.67;3.40;;;10.30;1.00;;;;;;5074961;28;20202;-77
2022/02/27 10:48:31;;;;;;;7.40;3.83;;;10.20;1.00;;;;;;5074338;28;20735;-74
2022/02/27 10:51:06;;;;;;;16.63;6.90;;;10.40;1.00;;;;;;5073848;28;20206;-76
2022/02/27 10:53:36;;;;;;;11.57;3.93;;;10.70;1.00;;;;;;5074116;28;20229;-77
2022/02/27 10:56:07;;;;;;;8.30;2.87;;;10.50;1.00;;;;;;5074035;28;20198;-73
2022/02/27 10:58:37;;;;;;;6.17;3.07;;;10.70;1.00;;;;;;5074463;28;20233;-76
2022/02/27 11:01:09;;;;;;;7.33;2.53;;;10.60;1.00;;;;;;5073639;28;20214;-74
2022/02/27 11:03:36;;;;;;;6.57;3.33;;;10.70;1.00;;;;;;5074030;28;20213;-75
2022/02/27 11:06:07;;;;;;;8.00;2.77;;;10.90;1.00;;;;;;5073397;28;20728;-73
2022/02/27 11:08:35;;;;;;;11.37;3.03;;;11.00;1.00;;;;;;5074049;28;20209;-71
2022/02/27 11:11:02;;;;;;;4.87;2.80;;;11.30;1.00;;;;;;5073629;28;20271;-76
2022/02/27 11:13:30;;;;;;;10.43;3.03;;;11.10;1.00;;;;;;5073706;28;20291;-73
2022/02/27 11:15:58;;;;;;;11.77;5.03;;;11.00;1.00;;;;;;5073543;28;20300;-77
2022/02/27 11:18:25;;;;;;;12.67;4.07;;;11.20;1.00;;;;;;5074157;28;20207;-75
2022/02/27 11:20:55;;;;;;;5.97;3.43;;;11.30;1.00;;;;;;5073175;28;20206;-71
2022/02/27 11:23:24;;;;;;;17.40;5.23;;;11.40;1.00;;;;;;5073958;28;20251;-70
2022/02/27 11:25:52;;;;;;;6.00;2.20;;;11.60;1.00;;;;;;5073969;28;20727;-78
2022/02/27 11:28:22;;;;;;;8.60;2.43;;;11.60;1.00;;;;;;5074056;28;20625;-73
2022/02/27 11:30:52;;;;;;;7.17;3.33;;;11.90;1.00;;;;;;5073827;28;20256;-78
2022/02/27 11:33:20;;;;;;;8.77;2.73;;;12.10;1.00;;;;;;5074106;28;20210;-75
2022/02/27 11:35:50;;;;;;;7.90;3.80;;;12.20;1.00;;;;;;5073826;28;20210;-72
2022/02/27 11:38:18;;;;;;;10.57;3.20;;;12.50;1.00;;;;;;5073697;28;20259;-78
2022/02/27 11:40:57;;;;;;;12.67;7.60;;;12.50;1.00;;;;;;5073426;28;20206;-79
2022/02/27 11:43:43;;;;;;;6.83;3.33;;;12.60;1.00;;;;;;5073432;28;20616;-71
2022/02/27 11:46:12;;;;;;;10.30;3.38;;;12.60;1.00;;;;;;5072166;28;20263;-72
2022/02/27 11:48:59;;;;;;;6.47;2.95;;;13.00;1.00;;;;;;5073279;28;20244;-78
2022/02/27 11:51:48;;;;;;;7.60;2.10;;;12.90;1.00;;;;;;5073072;28;20264;-74
2022/02/27 11:54:19;;;;;;;8.65;3.10;;;12.90;1.00;;;;;;5072795;28;20226;-77
2022/02/27 11:57:04;;;;;;;7.90;2.53;;;13.20;1.00;;;;;;5073057;28;20206;-77
2022/02/27 12:00:03;;;;;;;8.73;3.63;;;13.30;1.00;;;;;;5073163;28;20275;-75
2022/02/27 12:02:44;;;;;;;5.35;2.80;;;13.60;1.00;;;;;;5072727;28;20267;-75
2022/02/27 12:05:14;;;;;;;6.43;2.50;;;13.70;1.00;;;;;;5072457;28;20244;-75
2022/02/27 12:08:07;;;;;;;4.82;2.30;;;13.30;1.00;;;;;;5073239;28;20281;-77
2022/02/27 12:10:37;;;;;;;7.28;2.42;;;13.80;1.00;;;;;;5072911;28;20213;-76
2022/02/27 12:13:22;;;;;;;8.98;2.47;;;13.60;1.00;;;;;;5072586;28;20198;-75
2022/02/27 12:16:01;;;;;;;6.32;2.78;;;13.60;1.00;;;;;;5073003;28;20230;-77
2022/02/27 12:18:28;;;;;;;7.13;2.60;;;13.60;1.00;;;;;;5072546;28;20206;-75
2022/02/27 12:20:58;;;;;;;6.60;2.97;;;14.10;1.00;;;;;;5072506;28;20197;-76
2022/02/27 12:23:49;;;;;;;4.22;1.80;;;14.30;1.00;;;;;;5073054;28;20253;-75
2022/02/27 12:26:52;;;;;;;6.57;1.98;;;14.10;1.00;;;;;;5066612;28;20202;-79
2022/02/27 12:29:36;;;;;;;6.47;2.08;;;14.10;1.00;;;;;;5073072;28;20246;-77
2022/02/27 12:32:18;;;;;;;8.38;2.80;;;14.30;1.00;;;;;;5071887;28;20666;-72
2022/02/27 12:34:48;;;;;;;6.85;2.50;;;14.40;1.00;;;;;;5072194;28;20230;-76
2022/02/27 12:37:16;;;;;;;6.72;2.03;;;14.20;1.00;;;;;;5071817;28;20251;-75
2022/02/27 12:39:45;;;;;;;9.77;2.75;;;13.90;1.00;;;;;;5072310;28;20225;-77
2022/02/27 12:42:14;;;;;;;6.00;2.95;;;13.70;1.00;;;;;;5072139;28;20302;-79
2022/02/27 12:44:45;;;;;;;8.25;2.80;;;14.00;1.00;;;;;;5072380;28;20206;-77
2022/02/27 12:47:13;;;;;;;5.28;2.38;;;14.10;1.00;;;;;;5071878;28;20206;-78
2022/02/27 12:52:30;;;;;;;5.10;2.60;;;14.50;1.00;;;;;;5072228;28;20276;-77
2022/02/27 12:54:58;;;;;;;5.47;1.98;;;14.70;1.00;;;;;;5071576;28;20771;-75
2022/02/27 12:57:27;;;;;;;4.95;2.08;;;14.50;1.00;;;;;;5072092;28;20206;-73
2022/02/27 12:59:57;;;;;;;3.80;1.67;;;14.50;1.00;;;;;;5071593;28;20202;-76
2022/02/27 13:02:25;;;;;;;2.72;1.33;;;14.70;1.00;;;;;;5071420;28;20206;-77
2022/02/27 13:04:57;;;;;;;7.25;2.28;;;14.60;1.00;;;;;;5071443;28;20214;-73
2022/02/27 13:07:27;;;;;;;4.03;2.05;;;14.50;1.00;;;;;;5071674;28;20205;-79
2022/02/27 13:09:55;;;;;;;4.20;2.10;;;14.60;1.00;;;;;;5071645;28;20566;-77
2022/02/27 13:12:25;;;;;;;5.35;1.77;;;14.70;1.00;;;;;;5071729;28;20202;-70